createdAt,value
2022-12-24T00:00:30.975Z,24.00
2022-12-24T00:03:06.840Z,22.57
2022-12-24T00:05:48.207Z,22.50
2022-12-24T00:08:27.216Z,21.77
2022-12-24T00:10:57.475Z,20.50
2022-12-24T00:13:29.594Z,20.87
2022-12-24T00:16:45.502Z,21.20
2022-12-24T00:24:15.636Z,22.47
2022-12-24T00:26:57.325Z,22.20
2022-12-24T00:29:32.268Z,21.37
2022-12-24T00:33:18.198Z,22.13
2022-12-24T00:37:25.708Z,21.70
2022-12-24T00:40:06.268Z,21.07
2022-12-24T00:43:11.328Z,22.23
2022-12-24T00:45:53.279Z,21.97
2022-12-24T00:48:28.790Z,21.17
2022-12-24T00:51:06.067Z,21.10
2022-12-24T01:03:40.219Z,20.33
2022-12-24T01:07:22.441Z,19.10
2022-12-24T01:10:08.790Z,19.80
2022-12-24T01:13:05.132Z,19.17
2022-12-24T01:16:20.959Z,19.07
2022-12-24T01:19:50.854Z,16.20
2022-12-24T01:48:28.772Z,15.27
2022-12-24T01:59:56.564Z,15.20
2022-12-24T02:02:58.587Z,16.57
2022-12-24T02:06:11.189Z,15.97
2022-12-24T02:09:03.842Z,15.93
2022-12-24T02:12:00.842Z,15.40
2022-12-24T02:14:41.465Z,15.90
2022-12-24T02:17:44.652Z,15.00
2022-12-24T02:20:46.672Z,15.20
2022-12-24T02:24:26.870Z,14.70
2022-12-24T02:35:52.792Z,14.80
2022-12-24T02:38:29.011Z,16.37
2022-12-24T02:41:03.335Z,15.70
2022-12-24T02:43:37.330Z,15.53
2022-12-24T02:46:11.200Z,15.77
2022-12-24T02:48:43.795Z,15.37
2022-12-24T02:51:14.533Z,16.43
2022-12-24T02:53:43.306Z,16.73
2022-12-24T02:56:26.211Z,16.23
2022-12-24T02:59:16.300Z,17.73
2022-12-24T03:01:57.836Z,16.37
2022-12-24T03:04:40.400Z,16.30
2022-12-24T03:07:17.969Z,15.77
2022-12-24T03:09:58.595Z,16.10
2022-12-24T03:12:32.791Z,16.00
2022-12-24T03:15:01.913Z,15.80
2022-12-24T03:17:31.521Z,23.93
2022-12-24T03:23:54.902Z,25.50
2022-12-24T03:26:26.897Z,27.93
2022-12-24T03:28:55.807Z,24.80
2022-12-24T03:34:06.602Z,24.50
2022-12-24T03:36:35.205Z,22.53
2022-12-24T03:39:03.810Z,22.07
2022-12-24T03:41:33.889Z,19.83
2022-12-24T03:44:02.499Z,19.47
2022-12-24T03:46:33.779Z,20.30
2022-12-24T03:49:02.426Z,19.33
2022-12-24T03:51:30.920Z,18.40
2022-12-24T03:54:00.120Z,17.77
2022-12-24T03:56:30.391Z,17.47
2022-12-24T03:59:00.472Z,17.30
2022-12-24T04:01:29.611Z,17.60
2022-12-24T04:03:57.960Z,17.67
2022-12-24T04:06:26.135Z,17.50
2022-12-24T04:08:54.504Z,17.40
2022-12-24T04:11:23.305Z,18.07
2022-12-24T04:13:52.295Z,17.70
2022-12-24T04:16:22.371Z,17.30
2022-12-24T04:18:51.366Z,17.47
2022-12-24T04:21:19.699Z,16.83
2022-12-24T04:23:48.535Z,16.23
2022-12-24T04:26:17.453Z,16.10
2022-12-24T04:28:46.150Z,16.33
2022-12-24T04:31:17.841Z,15.60
2022-12-24T04:33:56.923Z,15.43
2022-12-24T04:36:25.871Z,15.07
2022-12-24T04:38:54.585Z,16.07
2022-12-24T04:41:25.187Z,17.40
2022-12-24T04:43:59.984Z,16.27
2022-12-24T04:46:31.183Z,15.33
2022-12-24T04:49:01.676Z,15.80
2022-12-24T04:51:30.744Z,16.23
2022-12-24T04:53:59.726Z,17.20
2022-12-24T04:56:30.620Z,16.07
2022-12-24T04:59:02.839Z,16.57
2022-12-24T05:01:33.171Z,17.27
2022-12-24T05:04:03.456Z,16.70
2022-12-24T05:06:38.097Z,16.67
2022-12-24T05:09:06.868Z,16.87
2022-12-24T05:11:35.478Z,17.30
2022-12-24T05:14:04.211Z,16.07
2022-12-24T05:16:35.136Z,16.30
2022-12-24T05:19:06.057Z,17.67
2022-12-24T05:21:34.750Z,15.87
2022-12-24T05:24:20.446Z,16.60
2022-12-24T05:26:54.409Z,19.70
2022-12-24T05:29:23.044Z,18.67
2022-12-24T05:31:51.944Z,18.93
2022-12-24T05:34:22.053Z,19.37
2022-12-24T05:36:50.671Z,19.13
2022-12-24T05:39:20.115Z,19.43
2022-12-24T05:41:48.779Z,19.10
2022-12-24T05:44:18.147Z,19.07
2022-12-24T05:46:48.201Z,20.17
2022-12-24T05:49:19.860Z,19.83
2022-12-24T05:51:50.467Z,18.63
2022-12-24T05:54:18.722Z,17.67
2022-12-24T05:56:47.769Z,17.73
2022-12-24T05:59:16.379Z,17.20
2022-12-24T06:01:48.680Z,17.07
2022-12-24T06:04:20.486Z,16.60
2022-12-24T06:06:56.061Z,17.60
2022-12-24T06:09:25.319Z,17.20
2022-12-24T06:11:59.094Z,16.33
2022-12-24T06:14:28.046Z,16.30
2022-12-24T06:16:56.630Z,16.43
2022-12-24T06:19:25.574Z,16.80
2022-12-24T06:21:56.348Z,17.10
2022-12-24T06:24:25.211Z,17.00
2022-12-24T06:26:53.952Z,17.33
2022-12-24T06:29:23.062Z,17.17
2022-12-24T06:31:52.887Z,17.27
2022-12-24T06:34:21.911Z,16.80
2022-12-24T06:37:22.597Z,16.77
2022-12-24T06:39:56.519Z,16.43
2022-12-24T06:42:59.538Z,16.07
2022-12-24T06:49:23.898Z,15.97
2022-12-24T06:51:55.231Z,16.97
2022-12-24T06:54:24.246Z,16.70
2022-12-24T06:56:57.688Z,15.80
2022-12-24T06:59:26.821Z,15.70
2022-12-24T07:01:56.307Z,16.27
2022-12-24T07:04:25.205Z,16.10
2022-12-24T07:06:53.847Z,16.20
2022-12-24T07:09:22.644Z,15.53
2022-12-24T07:11:51.158Z,16.47
2022-12-24T07:18:18.076Z,16.20
2022-12-24T07:20:46.598Z,15.77
2022-12-24T07:23:15.380Z,15.57
2022-12-24T07:25:53.393Z,16.37
2022-12-24T07:28:27.605Z,15.40
2022-12-24T07:30:58.862Z,15.37
2022-12-24T07:33:28.010Z,16.07
2022-12-24T07:36:01.701Z,17.00
2022-12-24T07:39:20.263Z,15.63
2022-12-24T07:41:54.887Z,15.97
2022-12-24T07:44:23.863Z,16.60
2022-12-24T07:46:55.847Z,16.10
2022-12-24T07:49:25.313Z,15.37
2022-12-24T07:51:57.619Z,15.57
2022-12-24T07:54:26.706Z,15.10
2022-12-24T07:56:55.467Z,15.70
2022-12-24T07:59:26.566Z,15.73
2022-12-24T08:02:18.280Z,17.00
2022-12-24T08:04:49.444Z,16.10
2022-12-24T08:11:15.465Z,16.30
2022-12-24T08:37:38.882Z,15.57
2022-12-24T09:00:12.272Z,15.00
2022-12-24T09:02:57.420Z,14.40
2022-12-24T09:13:28.735Z,15.20
2022-12-24T09:17:14.522Z,14.97
2022-12-24T09:21:02.081Z,15.53
2022-12-24T09:23:34.144Z,15.10
2022-12-24T09:32:05.742Z,16.43
2022-12-24T09:35:00.467Z,15.70
2022-12-24T09:38:24.669Z,15.00
2022-12-24T09:43:49.644Z,15.63
2022-12-24T09:52:37.387Z,15.90
2022-12-24T17:27:06.584Z,18.30
